createdAt,value
2023-01-13T00:01:34.720Z,99834.66
2023-01-13T00:04:04.990Z,99830.09
2023-01-13T00:06:33.444Z,99823.09
2023-01-13T00:09:01.817Z,99827.56
2023-01-13T00:11:31.589Z,99822.28
2023-01-13T00:14:00.021Z,99773.84
2023-01-13T00:16:30.958Z,99809.09
2023-01-13T00:18:59.417Z,99815.16
2023-01-13T00:21:27.801Z,99811.75
2023-01-13T00:23:57.167Z,99811.69
2023-01-13T00:26:30.591Z,99814.38
2023-01-13T00:29:01.581Z,99818.69
2023-01-13T00:31:31.484Z,99787.31
2023-01-13T00:34:02.037Z,99807.22
2023-01-13T00:36:31.543Z,99798.59
2023-01-13T00:39:00.182Z,99806.34
2023-01-13T00:41:29.298Z,99762.19
2023-01-13T00:43:56.703Z,99802.91
2023-01-13T00:46:26.512Z,99797.66
2023-01-13T00:48:54.981Z,99802.09
2023-01-13T00:51:23.747Z,99794.16
2023-01-13T00:53:53.268Z,99781.94
2023-01-13T00:56:39.344Z,99799.41
2023-01-13T00:59:11.086Z,99806.47
2023-01-13T01:01:42.467Z,99806.34
2023-01-13T01:04:11.229Z,99811.56
2023-01-13T01:06:39.728Z,99802.69
2023-01-13T01:09:08.236Z,99798.16
2023-01-13T01:11:37.201Z,99801.59
2023-01-13T01:14:06.075Z,99799.81
2023-01-13T01:16:35.695Z,99795.41
2023-01-13T01:19:06.244Z,99804.22
2023-01-13T01:21:35.891Z,99765.94
2023-01-13T01:24:06.253Z,99772.03
2023-01-13T01:26:34.979Z,99798.06
2023-01-13T01:29:03.580Z,99785.72
2023-01-13T01:31:36.858Z,99789.25
2023-01-13T01:34:06.697Z,99786.50
2023-01-13T01:36:36.635Z,99784.75
2023-01-13T01:39:06.835Z,99776.81
2023-01-13T01:41:37.983Z,99764.84
2023-01-13T01:44:29.039Z,99784.66
2023-01-13T01:46:58.786Z,99752.56
2023-01-13T01:49:34.838Z,99783.75
2023-01-13T01:52:10.106Z,99782.88
2023-01-13T01:54:45.655Z,99782.06
2023-01-13T01:57:20.731Z,99773.22
2023-01-13T01:59:49.363Z,99772.41
2023-01-13T02:02:18.874Z,99770.63
2023-01-13T02:04:54.594Z,99777.69
2023-01-13T02:07:28.387Z,99773.28
2023-01-13T02:10:00.197Z,99747.22
2023-01-13T02:12:32.984Z,99759.28
2023-01-13T02:15:05.452Z,99751.34
2023-01-13T02:18:09.063Z,99755.69
2023-01-13T02:21:00.270Z,99756.56
2023-01-13T02:24:38.329Z,99748.53
2023-01-13T02:27:41.882Z,99746.00
2023-01-13T02:30:41.087Z,99751.13
2023-01-13T02:33:37.751Z,99741.47
2023-01-13T02:36:16.785Z,99741.44
2023-01-13T02:38:57.744Z,99736.06
2023-01-13T02:41:52.923Z,99744.00
2023-01-13T02:44:29.779Z,99734.28
2023-01-13T02:47:07.547Z,99731.72
2023-01-13T02:49:41.478Z,99727.28
2023-01-13T02:52:17.179Z,99729.00
2023-01-13T02:54:53.997Z,99715.13
2023-01-13T02:57:26.227Z,99728.22
2023-01-13T02:59:57.019Z,99723.88
2023-01-13T03:02:28.051Z,99711.78
2023-01-13T03:04:59.502Z,99710.00
2023-01-13T03:08:17.881Z,99675.38
2023-01-13T03:11:02.608Z,99722.16
2023-01-13T03:14:12.855Z,99712.50
2023-01-13T03:17:03.015Z,99690.03
2023-01-13T03:19:45.463Z,99685.75
2023-01-13T03:22:25.959Z,99721.97
2023-01-13T03:25:03.710Z,99725.41
2023-01-13T03:27:42.686Z,99717.50
2023-01-13T03:30:20.480Z,99718.38
2023-01-13T03:32:56.887Z,99722.69
2023-01-13T03:35:33.522Z,99713.16
2023-01-13T03:38:07.468Z,99717.38
2023-01-13T03:40:47.057Z,99724.44
2023-01-13T03:43:41.786Z,99721.78
2023-01-13T03:46:32.537Z,99714.06
2023-01-13T03:49:07.510Z,99723.56
2023-01-13T03:51:44.995Z,99707.16
2023-01-13T03:54:16.606Z,99720.97
2023-01-13T03:56:50.312Z,99723.59
2023-01-13T03:59:25.190Z,99708.78
2023-01-13T04:02:02.745Z,99713.94
2023-01-13T04:04:36.920Z,99720.13
2023-01-13T04:07:21.404Z,99723.94
2023-01-13T04:09:54.634Z,99722.47
2023-01-13T04:12:51.083Z,99716.69
2023-01-13T04:15:24.407Z,99576.97
2023-01-13T04:17:53.182Z,99731.56
2023-01-13T04:20:22.415Z,99695.69
2023-01-13T04:22:52.283Z,99703.31
2023-01-13T04:25:20.767Z,99718.69
2023-01-13T04:27:49.282Z,99649.53
2023-01-13T04:30:18.658Z,99721.19
2023-01-13T04:32:47.137Z,99695.19
2023-01-13T04:35:15.931Z,99721.00
2023-01-13T04:37:44.460Z,99717.38
2023-01-13T04:40:15.278Z,99695.66
2023-01-13T04:42:45.673Z,99681.00
2023-01-13T04:45:14.292Z,99665.41
2023-01-13T04:47:43.016Z,99722.59
2023-01-13T04:50:13.005Z,99662.88
2023-01-13T04:52:41.682Z,99688.69
2023-01-13T04:55:13.151Z,99711.31
2023-01-13T04:57:41.595Z,99728.56
2023-01-13T05:00:14.488Z,99726.84
2023-01-13T05:02:43.419Z,99699.16
2023-01-13T05:05:12.657Z,99700.88
2023-01-13T05:07:41.190Z,99729.22
2023-01-13T05:10:11.588Z,99730.16
2023-01-13T05:12:59.088Z,99731.88
2023-01-13T05:15:45.081Z,99691.16
2023-01-13T05:18:14.268Z,99732.59
2023-01-13T05:20:42.731Z,99734.22
2023-01-13T05:23:28.773Z,99658.84
2023-01-13T05:25:57.283Z,99728.66
2023-01-13T05:28:29.529Z,99726.00
2023-01-13T05:30:58.991Z,99725.03
2023-01-13T05:33:27.530Z,99692.25
2023-01-13T05:35:55.955Z,99630.00
2023-01-13T05:38:24.348Z,99729.41
2023-01-13T05:41:10.318Z,99730.22
2023-01-13T05:43:40.095Z,99724.03
2023-01-13T05:46:11.889Z,99724.06
2023-01-13T05:48:44.526Z,99720.56
2023-01-13T05:51:14.453Z,99714.47
2023-01-13T05:53:43.184Z,99699.72
2023-01-13T05:56:13.638Z,99724.84
2023-01-13T05:58:43.407Z,99724.97
2023-01-13T06:01:12.627Z,99720.81
2023-01-13T06:03:41.105Z,99719.19
2023-01-13T06:06:10.072Z,99732.50
2023-01-13T06:08:39.905Z,99737.75
2023-01-13T06:11:11.418Z,99729.41
2023-01-13T06:13:39.831Z,99740.63
2023-01-13T06:16:10.752Z,99658.25
2023-01-13T06:18:39.201Z,99734.28
2023-01-13T06:21:07.797Z,99683.38
2023-01-13T06:23:38.712Z,99742.94
2023-01-13T06:26:14.786Z,99741.09
2023-01-13T06:28:43.392Z,99744.66
2023-01-13T06:31:40.589Z,99742.84
2023-01-13T06:34:14.753Z,99730.63
2023-01-13T06:36:49.753Z,99744.63
2023-01-13T06:39:22.761Z,99742.00
2023-01-13T06:42:11.925Z,99712.03
2023-01-13T06:44:41.111Z,99733.53
2023-01-13T06:47:11.458Z,99745.66
2023-01-13T06:49:39.829Z,99749.28
2023-01-13T06:52:08.271Z,99751.03
2023-01-13T06:54:36.637Z,99756.22
2023-01-13T06:57:09.661Z,99730.28
2023-01-13T06:59:38.217Z,99756.44
2023-01-13T07:02:06.831Z,99750.44
2023-01-13T07:04:36.705Z,99745.19
2023-01-13T07:07:05.068Z,99746.81
2023-01-13T07:09:33.454Z,99749.09
2023-01-13T07:12:04.201Z,99734.25
2023-01-13T07:14:58.872Z,99747.97
2023-01-13T07:17:27.419Z,99749.69
2023-01-13T07:19:58.066Z,99747.00
2023-01-13T07:22:26.645Z,99747.88
2023-01-13T07:24:55.056Z,99748.75
2023-01-13T07:27:24.024Z,99718.53
2023-01-13T07:29:52.461Z,99753.06
2023-01-13T07:32:20.811Z,99759.09
2023-01-13T07:34:49.191Z,99759.94
2023-01-13T07:37:21.992Z,99764.25
2023-01-13T07:39:50.461Z,99762.19
2023-01-13T07:42:36.391Z,99755.91
2023-01-13T07:45:05.462Z,99745.22
2023-01-13T07:47:33.855Z,99760.91
2023-01-13T07:50:02.762Z,99759.06
2023-01-13T07:52:32.568Z,99756.34
2023-01-13T07:55:20.066Z,99665.53
2023-01-13T07:57:49.791Z,99759.69
2023-01-13T08:00:19.740Z,99753.44
2023-01-13T08:02:48.215Z,99750.78
2023-01-13T08:05:16.936Z,99763.75
2023-01-13T08:07:52.254Z,99718.69
2023-01-13T08:10:20.873Z,99727.53
2023-01-13T08:13:06.728Z,99769.75
2023-01-13T08:15:37.789Z,99768.72
2023-01-13T08:18:06.197Z,99702.03
2023-01-13T08:20:35.176Z,99764.13
2023-01-13T08:23:07.230Z,99770.47
2023-01-13T08:25:36.557Z,99752.16
2023-01-13T08:28:06.616Z,99764.13
2023-01-13T08:30:35.065Z,99732.88
2023-01-13T08:33:03.472Z,99769.91
2023-01-13T08:35:32.029Z,99778.78
2023-01-13T08:38:00.500Z,99746.88
2023-01-13T08:40:30.417Z,99785.75
2023-01-13T08:43:00.325Z,99754.69
2023-01-13T08:45:29.010Z,99709.75
2023-01-13T08:47:57.534Z,99790.06
2023-01-13T08:50:26.175Z,99796.25
2023-01-13T08:52:54.958Z,99801.47
2023-01-13T08:55:25.301Z,99814.59
2023-01-13T08:58:06.384Z,99817.25
2023-01-13T09:00:44.051Z,99814.78
2023-01-13T09:03:12.742Z,99829.13
2023-01-13T09:05:41.225Z,99824.25
2023-01-13T09:08:09.685Z,99836.03
2023-01-13T09:10:41.462Z,99752.34
2023-01-13T09:13:13.917Z,99807.06
2023-01-13T09:15:46.204Z,99840.25
2023-01-13T09:18:14.867Z,99837.81
2023-01-13T09:20:44.569Z,99850.28
2023-01-13T09:23:13.091Z,99816.53
2023-01-13T09:25:41.619Z,99739.81
2023-01-13T09:28:10.070Z,99858.47
2023-01-13T09:30:40.207Z,99855.97
2023-01-13T09:33:27.313Z,99861.88
2023-01-13T09:36:01.149Z,99859.94
2023-01-13T09:38:29.807Z,99757.56
2023-01-13T09:40:58.539Z,99720.03
2023-01-13T09:43:54.784Z,99836.94
2023-01-13T09:46:47.597Z,99826.75
2023-01-13T09:49:22.225Z,99831.56
2023-01-13T09:52:03.529Z,99830.63
2023-01-13T09:54:39.635Z,99835.25
2023-01-13T09:57:12.830Z,99806.81
2023-01-13T09:59:42.486Z,99815.50
2023-01-13T10:02:40.522Z,99809.47
2023-01-13T10:05:20.407Z,99833.78
2023-01-13T10:07:55.110Z,99827.72
2023-01-13T10:10:41.886Z,99809.56
2023-01-13T10:13:20.871Z,99845.31
2023-01-13T10:16:23.963Z,99850.28
2023-01-13T10:19:11.029Z,99819.06
2023-01-13T10:22:16.615Z,99778.81
2023-01-13T10:25:20.660Z,99799.75
2023-01-13T10:27:52.066Z,99856.69
2023-01-13T10:30:31.574Z,99858.78
2023-01-13T10:33:02.989Z,99798.88
2023-01-13T10:35:59.199Z,99864.34
2023-01-13T10:38:37.302Z,99856.53
2023-01-13T10:41:19.585Z,99852.50
2023-01-13T10:44:09.535Z,99562.50
2023-01-13T10:46:54.650Z,99793.44
2023-01-13T10:49:34.057Z,99818.81
2023-01-13T10:52:27.227Z,99815.25
2023-01-13T10:54:56.959Z,99846.28
2023-01-13T10:57:28.179Z,99851.56
2023-01-13T10:59:57.488Z,99840.13
2023-01-13T11:02:31.755Z,99841.22
2023-01-13T11:05:18.686Z,99821.03
2023-01-13T11:07:56.305Z,99829.53
2023-01-13T11:10:31.344Z,99809.34
2023-01-13T11:13:08.525Z,99760.75
2023-01-13T11:15:47.436Z,99780.97
2023-01-13T11:18:26.795Z,99711.19
2023-01-13T11:21:00.052Z,99703.94
2023-01-13T11:23:38.041Z,99782.59
2023-01-13T11:26:18.292Z,99788.09
2023-01-13T11:28:58.356Z,99784.25
2023-01-13T11:31:35.740Z,99766.84
2023-01-13T11:34:13.838Z,99760.69
2023-01-13T11:36:51.197Z,99756.44
2023-01-13T11:39:31.620Z,99791.22
2023-01-13T11:42:24.698Z,99795.38
2023-01-13T11:45:05.126Z,99807.50
2023-01-13T11:47:36.414Z,99737.09
2023-01-13T11:50:15.280Z,99820.75
2023-01-13T11:53:16.440Z,99793.38
2023-01-13T11:56:02.112Z,99776.78
2023-01-13T11:59:10.472Z,99812.63
2023-01-13T12:02:03.407Z,99842.50
2023-01-13T12:04:45.055Z,99827.75
2023-01-13T12:07:23.281Z,99826.91
2023-01-13T12:10:13.094Z,99809.53
2023-01-13T12:12:54.606Z,99786.09
2023-01-13T12:15:57.293Z,99840.25
2023-01-13T12:18:52.862Z,99790.13
2023-01-13T12:21:24.662Z,99836.09
2023-01-13T12:24:13.814Z,99838.72
2023-01-13T12:26:52.905Z,99751.09
2023-01-13T12:29:32.502Z,99844.13
2023-01-13T12:32:05.778Z,99839.91
2023-01-13T12:34:54.517Z,99809.88
2023-01-13T12:37:38.320Z,99810.00
2023-01-13T12:40:29.686Z,99746.47
2023-01-13T12:43:34.206Z,99846.47
2023-01-13T12:46:56.097Z,99834.59
2023-01-13T12:49:29.005Z,99823.56
2023-01-13T12:52:23.967Z,99830.91
2023-01-13T12:55:21.428Z,99777.09
2023-01-13T12:58:18.237Z,99843.28
2023-01-13T13:01:02.078Z,99854.41
2023-01-13T13:03:37.891Z,99782.72
2023-01-13T13:06:20.157Z,99834.66
2023-01-13T13:09:06.437Z,99843.94
2023-01-13T13:12:03.075Z,99851.56
2023-01-13T13:15:04.485Z,99854.25
2023-01-13T13:17:46.153Z,99857.06
2023-01-13T13:20:59.767Z,99855.59
2023-01-13T13:23:47.887Z,99832.41
2023-01-13T13:26:32.901Z,99800.25
2023-01-13T13:29:38.820Z,99859.84
2023-01-13T13:32:53.674Z,99848.28
2023-01-13T13:35:41.037Z,99848.91
2023-01-13T13:38:50.116Z,99857.34
2023-01-13T13:41:39.758Z,99851.69
2023-01-13T13:44:35.795Z,99885.22
2023-01-13T13:47:07.501Z,99879.53
2023-01-13T13:49:41.252Z,99852.50
2023-01-13T13:52:19.150Z,99760.47
2023-01-13T13:54:53.293Z,99853.19
2023-01-13T13:57:29.340Z,99904.88
2023-01-13T14:00:00.959Z,99839.38
2023-01-13T14:02:33.182Z,99896.06
2023-01-13T14:05:19.880Z,99865.41
2023-01-13T14:07:51.664Z,99911.50
2023-01-13T14:10:27.695Z,99900.47
2023-01-13T14:12:57.275Z,99899.88
2023-01-13T14:15:34.474Z,99895.81
2023-01-13T14:18:07.598Z,99872.69
2023-01-13T14:20:37.016Z,99851.38
2023-01-13T14:23:06.832Z,99846.22
2023-01-13T14:25:40.406Z,99871.59
2023-01-13T14:28:24.060Z,99899.25
2023-01-13T14:30:54.362Z,99915.97
2023-01-13T14:33:38.873Z,99897.63
2023-01-13T14:36:20.546Z,99909.34
2023-01-13T14:38:51.551Z,99927.06
2023-01-13T14:41:28.914Z,99928.09
2023-01-13T14:44:04.605Z,99832.81
2023-01-13T14:46:45.806Z,99907.44
2023-01-13T14:49:27.132Z,99919.69
2023-01-13T14:52:06.300Z,99918.72
2023-01-13T14:54:47.475Z,99878.19
2023-01-13T14:57:27.631Z,99922.00
2023-01-13T15:00:08.044Z,99916.06
2023-01-13T15:02:43.839Z,99845.84
2023-01-13T15:05:39.436Z,99918.88
2023-01-13T15:08:38.104Z,99917.25
2023-01-13T15:11:20.031Z,99887.03
2023-01-13T15:13:58.939Z,99942.69
2023-01-13T15:16:29.994Z,99940.91
2023-01-13T15:18:59.253Z,99908.03
2023-01-13T15:21:28.890Z,99902.03
2023-01-13T15:23:57.565Z,99947.34
2023-01-13T15:26:28.795Z,99924.84
2023-01-13T15:29:00.840Z,99929.22
2023-01-13T15:31:30.209Z,99884.84
2023-01-13T15:34:02.105Z,99970.75
2023-01-13T15:36:33.137Z,99961.09
2023-01-13T15:39:03.415Z,99954.34
2023-01-13T15:41:49.326Z,99972.88
2023-01-13T15:44:37.230Z,99968.69
2023-01-13T15:47:10.319Z,99967.22
2023-01-13T15:49:43.190Z,99973.56
2023-01-13T15:52:21.973Z,99979.84
2023-01-13T15:54:51.176Z,99986.97
2023-01-13T15:57:25.676Z,99954.72
2023-01-13T15:59:59.446Z,99987.09
2023-01-13T16:02:29.742Z,99943.81
2023-01-13T16:04:58.425Z,99979.25
2023-01-13T16:07:27.753Z,99934.16
2023-01-13T16:09:56.244Z,99983.66
2023-01-13T16:12:24.629Z,99993.38
2023-01-13T16:14:54.600Z,99995.19
2023-01-13T16:17:26.037Z,99908.41
2023-01-13T16:19:54.595Z,99999.72
2023-01-13T16:22:23.140Z,99991.06
2023-01-13T16:24:52.150Z,99997.22
2023-01-13T16:27:26.322Z,99884.41
2023-01-13T16:29:56.456Z,99997.41
2023-01-13T16:32:25.211Z,99998.28
2023-01-13T16:34:54.080Z,100001.00
2023-01-13T16:37:26.418Z,100004.53
2023-01-13T16:39:55.619Z,100002.00
2023-01-13T16:42:24.341Z,100013.41
2023-01-13T16:44:52.990Z,100009.03
2023-01-13T16:47:26.323Z,100018.66
2023-01-13T16:49:57.143Z,100016.97
2023-01-13T16:52:26.067Z,99994.06
2023-01-13T16:54:54.852Z,100003.75
2023-01-13T16:57:23.756Z,100015.06
2023-01-13T16:59:52.308Z,100010.69
2023-01-13T17:02:22.910Z,100011.53
2023-01-13T17:04:51.752Z,100006.28
2023-01-13T17:07:20.442Z,100017.63
2023-01-13T17:09:51.458Z,99942.88
2023-01-13T17:12:19.915Z,100011.50
2023-01-13T17:15:23.905Z,99798.63
2023-01-13T17:17:55.258Z,100028.84
2023-01-13T17:20:23.735Z,99963.75
2023-01-13T17:22:58.344Z,100032.53
2023-01-13T17:25:27.466Z,100024.75
2023-01-13T17:27:55.832Z,100038.69
2023-01-13T17:30:24.260Z,100036.84
2023-01-13T17:32:54.109Z,99961.94
2023-01-13T17:35:24.972Z,99926.19
2023-01-13T17:37:54.389Z,100036.69
2023-01-13T17:40:23.230Z,100000.25
2023-01-13T17:42:51.664Z,99996.69
2023-01-13T17:45:21.297Z,100057.53
2023-01-13T17:47:49.822Z,100065.31
2023-01-13T17:50:20.187Z,100048.66
2023-01-13T17:52:51.556Z,99811.31
2023-01-13T17:55:20.083Z,100011.19
2023-01-13T17:57:48.769Z,100100.66
2023-01-13T18:00:20.256Z,99901.50
2023-01-13T18:02:49.305Z,100110.88
2023-01-13T18:05:19.562Z,100102.81
2023-01-13T18:07:48.027Z,100114.13
2023-01-13T18:10:16.754Z,100033.22
2023-01-13T18:12:45.539Z,100127.16
2023-01-13T18:15:15.502Z,100136.66
2023-01-13T18:17:44.113Z,100124.34
2023-01-13T18:20:36.846Z,100106.88
2023-01-13T18:23:22.918Z,100135.53
2023-01-13T18:26:08.737Z,100165.00
2023-01-13T18:28:37.137Z,100170.06
2023-01-13T18:31:05.908Z,100175.50
2023-01-13T18:33:34.458Z,100136.44
2023-01-13T18:36:09.792Z,100162.72
2023-01-13T18:38:38.551Z,100157.59
2023-01-13T18:41:28.080Z,100151.63
2023-01-13T18:43:58.430Z,100137.88
2023-01-13T18:46:26.977Z,100149.28
2023-01-13T18:48:56.134Z,100074.50
2023-01-13T18:51:28.793Z,100165.22
2023-01-13T18:53:57.257Z,100115.66
2023-01-13T18:56:25.783Z,100154.03
2023-01-13T18:58:54.459Z,100069.78
2023-01-13T19:01:25.847Z,100155.13
2023-01-13T19:03:59.559Z,100161.31
2023-01-13T19:06:32.698Z,100163.09
2023-01-13T19:09:08.642Z,100162.19
2023-01-13T19:11:37.672Z,100163.00
2023-01-13T19:14:06.123Z,100166.53
2023-01-13T19:16:34.719Z,99892.50
2023-01-13T19:19:03.561Z,100160.41
2023-01-13T19:21:34.572Z,100110.84
2023-01-13T19:24:09.112Z,100168.41
2023-01-13T19:26:38.097Z,100159.69
2023-01-13T19:29:15.430Z,100125.00
2023-01-13T19:31:45.745Z,100144.97
2023-01-13T19:34:14.431Z,100147.69
2023-01-13T19:36:44.425Z,100172.94
2023-01-13T19:39:12.922Z,100119.91
2023-01-13T19:41:58.996Z,100182.63
2023-01-13T19:44:47.021Z,100139.81
2023-01-13T19:47:17.756Z,100124.94
2023-01-13T19:49:48.015Z,100188.59
2023-01-13T19:52:18.030Z,100097.22
2023-01-13T19:54:47.346Z,100187.88
2023-01-13T19:57:16.445Z,100127.84
2023-01-13T19:59:44.916Z,100189.78
2023-01-13T20:02:17.548Z,100188.97
2023-01-13T20:04:48.898Z,100197.81
2023-01-13T20:07:21.029Z,100181.28
2023-01-13T20:09:49.736Z,100199.63
2023-01-13T20:12:26.640Z,100202.28
2023-01-13T20:14:55.532Z,100205.75
2023-01-13T20:17:25.641Z,100190.09
2023-01-13T20:19:54.517Z,100131.69
2023-01-13T20:22:24.692Z,100157.84
2023-01-13T20:24:56.079Z,100192.66
2023-01-13T20:27:26.377Z,100182.28
2023-01-13T20:29:55.301Z,100223.34
2023-01-13T20:32:24.906Z,100178.03
2023-01-13T20:34:56.916Z,100239.97
2023-01-13T20:37:28.775Z,100246.97
2023-01-13T20:40:04.922Z,100247.88
2023-01-13T20:42:42.422Z,100082.28
2023-01-13T20:45:17.302Z,100260.94
2023-01-13T20:47:47.501Z,100096.22
2023-01-13T20:50:17.572Z,100232.13
2023-01-13T20:52:48.714Z,100124.97
2023-01-13T20:55:18.162Z,100263.53
2023-01-13T20:57:49.271Z,100260.88
2023-01-13T21:00:20.245Z,100214.69
2023-01-13T21:02:49.407Z,100258.19
2023-01-13T21:05:18.268Z,100267.84
2023-01-13T21:07:48.200Z,100265.22
2023-01-13T21:10:19.803Z,100261.72
2023-01-13T21:13:08.890Z,100273.09
2023-01-13T21:15:38.730Z,100262.63
2023-01-13T21:18:24.640Z,100279.16
2023-01-13T21:21:11.738Z,100284.41
2023-01-13T21:23:47.283Z,100284.41
2023-01-13T21:26:17.806Z,100288.91
2023-01-13T21:28:46.539Z,100283.66
2023-01-13T21:31:16.018Z,100239.19
2023-01-13T21:33:47.616Z,100288.97
2023-01-13T21:36:17.485Z,100275.84
2023-01-13T21:38:52.709Z,100290.72
2023-01-13T21:41:36.555Z,100288.97
2023-01-13T21:44:23.351Z,100290.66
2023-01-13T21:47:09.443Z,100293.34
2023-01-13T21:49:44.057Z,100302.97
2023-01-13T21:52:13.349Z,100295.91
2023-01-13T21:54:57.338Z,100190.31
2023-01-13T21:57:27.302Z,100313.28
2023-01-13T21:59:55.965Z,100310.59
2023-01-13T22:02:31.940Z,100314.06
2023-01-13T22:05:04.440Z,100307.03
2023-01-13T22:07:36.325Z,100311.34
2023-01-13T22:10:08.868Z,100319.25
2023-01-13T22:12:39.659Z,100321.94
2023-01-13T22:15:13.471Z,100317.47
2023-01-13T22:17:42.969Z,100329.66
2023-01-13T22:20:16.904Z,100327.88
2023-01-13T22:22:45.908Z,100323.41
2023-01-13T22:25:19.991Z,100302.38
2023-01-13T22:27:49.212Z,100013.09
2023-01-13T22:30:23.004Z,100325.75
2023-01-13T22:32:53.551Z,100325.72
2023-01-13T22:35:21.991Z,100330.13
2023-01-13T22:37:50.372Z,100340.56
2023-01-13T22:40:20.363Z,100337.03
2023-01-13T22:42:48.741Z,100344.84
2023-01-13T22:45:19.878Z,100345.72
2023-01-13T22:47:49.659Z,100346.66
2023-01-13T22:50:20.965Z,100345.00
2023-01-13T22:52:50.920Z,100344.28
2023-01-13T22:55:20.793Z,100169.16
2023-01-13T22:57:55.185Z,100346.22
2023-01-13T23:00:24.926Z,100348.94
2023-01-13T23:02:55.889Z,100312.38
2023-01-13T23:05:24.628Z,100354.31
2023-01-13T23:07:52.991Z,100356.09
2023-01-13T23:10:22.821Z,100362.16
2023-01-13T23:12:53.131Z,100363.78
2023-01-13T23:15:24.289Z,100359.34
2023-01-13T23:17:54.355Z,100355.81
2023-01-13T23:20:22.756Z,100258.28
2023-01-13T23:22:51.174Z,100355.97
2023-01-13T23:25:19.615Z,100362.97
2023-01-13T23:27:49.362Z,100351.63
2023-01-13T23:30:18.260Z,100366.59
2023-01-13T23:32:46.749Z,100369.16
2023-01-13T23:35:18.029Z,100354.34
2023-01-13T23:37:46.512Z,100369.25
2023-01-13T23:40:17.744Z,100340.41
2023-01-13T23:42:46.191Z,100370.91
2023-01-13T23:45:18.283Z,100322.16
2023-01-13T23:47:46.792Z,100369.22
2023-01-13T23:50:15.541Z,100375.38
2023-01-13T23:52:44.377Z,100371.06
2023-01-13T23:55:13.164Z,100391.16
2023-01-13T23:57:42.710Z,100281.13
